createdAt,value
2023-01-22T00:01:10.026Z,21.40
2023-01-22T00:03:40.955Z,18.57
2023-01-22T00:06:10.365Z,20.77
2023-01-22T00:08:38.277Z,20.40
2023-01-22T00:11:06.256Z,20.03
2023-01-22T00:13:35.003Z,20.27
2023-01-22T00:16:03.078Z,19.03
2023-01-22T00:18:30.769Z,19.03
2023-01-22T00:20:58.741Z,21.10
2023-01-22T00:23:26.696Z,19.77
2023-01-22T00:26:06.875Z,22.17
2023-01-22T00:28:34.430Z,20.73
2023-01-22T00:31:04.061Z,21.20
2023-01-22T00:33:31.807Z,21.87
2023-01-22T00:36:06.395Z,20.83
2023-01-22T00:38:34.274Z,20.50
2023-01-22T00:41:03.079Z,20.80
2023-01-22T00:43:30.885Z,21.00
2023-01-22T00:45:58.765Z,23.67
2023-01-22T00:48:27.956Z,23.40
2023-01-22T00:50:56.034Z,26.33
2023-01-22T00:53:23.871Z,26.23
2023-01-22T00:56:02.190Z,25.83
2023-01-22T00:58:30.731Z,24.30
2023-01-22T01:00:59.074Z,26.80
2023-01-22T01:03:26.776Z,25.13
2023-01-22T01:05:58.639Z,26.20
2023-01-22T01:08:26.455Z,27.40
2023-01-22T01:11:02.805Z,28.13
2023-01-22T01:13:32.757Z,27.27
2023-01-22T01:16:06.738Z,27.10
2023-01-22T01:18:35.214Z,28.97
2023-01-22T01:21:04.881Z,26.27
2023-01-22T01:23:32.605Z,24.90
2023-01-22T01:26:01.713Z,26.53
2023-01-22T01:28:29.452Z,25.67
2023-01-22T01:30:57.629Z,27.37
2023-01-22T01:33:25.277Z,24.27
2023-01-22T01:36:00.163Z,23.73
2023-01-22T01:38:30.419Z,25.97
2023-01-22T01:40:58.425Z,25.10
2023-01-22T01:43:26.157Z,22.90
2023-01-22T01:45:54.977Z,20.13
2023-01-22T01:48:38.943Z,22.20
2023-01-22T01:51:11.850Z,21.80
2023-01-22T01:53:40.655Z,22.03
2023-01-22T01:56:15.519Z,20.30
2023-01-22T01:58:44.747Z,20.57
2023-01-22T02:01:15.714Z,19.47
2023-01-22T02:03:44.748Z,20.47
2023-01-22T02:06:15.300Z,20.73
2023-01-22T02:08:45.558Z,20.50
2023-01-22T02:11:13.756Z,18.87
2023-01-22T02:13:45.681Z,20.20
2023-01-22T02:16:13.562Z,20.50
2023-01-22T02:18:41.168Z,19.47
2023-01-22T02:21:37.923Z,22.37
2023-01-22T02:24:14.945Z,21.40
2023-01-22T02:26:44.315Z,19.27
2023-01-22T02:29:16.490Z,20.40
2023-01-22T02:31:44.477Z,23.07
2023-01-22T02:34:12.379Z,22.87
2023-01-22T02:36:40.731Z,21.50
2023-01-22T02:39:09.307Z,21.67
2023-01-22T02:41:39.103Z,22.83
2023-01-22T02:44:07.580Z,26.13
2023-01-22T02:46:35.572Z,24.80
2023-01-22T02:49:03.156Z,25.37
2023-01-22T02:51:33.293Z,24.60
2023-01-22T02:54:01.945Z,27.33
2023-01-22T02:56:30.107Z,22.63
2023-01-22T02:59:00.561Z,26.07
2023-01-22T03:01:28.481Z,25.10
2023-01-22T03:04:11.358Z,24.30
2023-01-22T03:06:43.964Z,24.87
2023-01-22T03:09:13.659Z,24.50
2023-01-22T03:11:43.208Z,25.13
2023-01-22T03:14:33.552Z,25.97
2023-01-22T03:17:20.448Z,28.00
2023-01-22T03:20:06.650Z,26.23
2023-01-22T03:22:34.543Z,24.97
2023-01-22T03:25:02.681Z,24.83
2023-01-22T03:27:31.959Z,26.67
2023-01-22T03:29:59.696Z,26.33
2023-01-22T03:32:29.872Z,27.63
2023-01-22T03:34:57.470Z,26.67
2023-01-22T03:37:30.112Z,26.40
2023-01-22T03:40:00.243Z,25.13
2023-01-22T03:42:35.961Z,27.40
2023-01-22T03:45:03.580Z,25.47
2023-01-22T03:47:32.593Z,26.60
2023-01-22T03:50:03.521Z,26.03
2023-01-22T03:52:31.506Z,24.97
2023-01-22T03:55:03.419Z,24.97
2023-01-22T03:57:32.517Z,24.07
2023-01-22T04:00:02.145Z,25.03
2023-01-22T04:02:40.773Z,23.53
2023-01-22T04:05:18.610Z,25.27
2023-01-22T04:07:46.435Z,25.13
2023-01-22T04:10:14.316Z,25.23
2023-01-22T04:12:42.214Z,26.03
2023-01-22T04:15:12.981Z,25.20
2023-01-22T04:17:40.894Z,26.27
2023-01-22T04:20:29.349Z,24.10
2023-01-22T04:23:19.673Z,25.40
2023-01-22T04:25:48.052Z,27.30
2023-01-22T04:28:16.753Z,26.73
2023-01-22T04:30:46.442Z,25.90
2023-01-22T04:33:40.443Z,26.17
2023-01-22T04:36:13.415Z,24.73
2023-01-22T04:38:41.341Z,24.57
2023-01-22T04:41:09.709Z,24.23
2023-01-22T04:43:37.598Z,26.23
2023-01-22T04:46:05.304Z,23.30
2023-01-22T04:48:34.803Z,26.10
2023-01-22T04:51:02.464Z,24.80
2023-01-22T04:53:32.375Z,23.67
2023-01-22T04:56:00.957Z,23.30
2023-01-22T04:58:29.358Z,23.03
2023-01-22T05:00:59.664Z,23.53
2023-01-22T05:03:28.075Z,24.40
2023-01-22T05:05:56.570Z,24.47
2023-01-22T05:08:24.370Z,23.10
2023-01-22T05:10:52.091Z,23.50
2023-01-22T05:13:26.207Z,24.37
2023-01-22T05:15:54.032Z,25.70
2023-01-22T05:18:23.718Z,24.93
2023-01-22T05:20:52.754Z,25.17
2023-01-22T05:23:22.875Z,23.20
2023-01-22T05:25:51.363Z,25.00
2023-01-22T05:28:25.803Z,26.43
2023-01-22T05:31:05.974Z,23.13
2023-01-22T05:33:39.301Z,23.67
2023-01-22T05:36:09.799Z,24.00
2023-01-22T05:38:37.708Z,23.63
2023-01-22T05:41:05.717Z,23.43
2023-01-22T05:43:38.392Z,24.23
2023-01-22T05:46:08.650Z,22.67
2023-01-22T05:48:45.450Z,23.13
2023-01-22T05:51:17.170Z,23.53
2023-01-22T05:53:46.010Z,24.57
2023-01-22T05:56:14.634Z,23.23
2023-01-22T05:58:42.481Z,25.00
2023-01-22T06:01:10.854Z,23.90
2023-01-22T06:03:46.350Z,23.67
2023-01-22T06:06:18.129Z,22.37
2023-01-22T06:08:47.862Z,23.40
2023-01-22T06:11:17.273Z,25.10
2023-01-22T06:13:47.348Z,24.37
2023-01-22T06:16:18.019Z,21.80
2023-01-22T06:19:00.701Z,24.80
2023-01-22T06:21:33.795Z,22.63
2023-01-22T06:24:01.802Z,24.23
2023-01-22T06:26:31.542Z,24.80
2023-01-22T06:29:00.904Z,24.47
2023-01-22T06:31:30.996Z,27.93
2023-01-22T06:33:59.272Z,26.77
2023-01-22T06:36:26.980Z,27.13
2023-01-22T06:38:55.762Z,27.13
2023-01-22T06:41:36.862Z,25.30
2023-01-22T06:44:07.056Z,26.77
2023-01-22T06:46:34.741Z,25.93
2023-01-22T06:49:10.201Z,24.67
2023-01-22T06:51:39.724Z,26.40
2023-01-22T06:54:07.661Z,25.40
2023-01-22T06:56:35.498Z,25.20
2023-01-22T06:59:05.754Z,27.90
2023-01-22T07:01:33.527Z,27.90
2023-01-22T07:04:01.675Z,29.93
2023-01-22T07:06:29.553Z,27.43
2023-01-22T07:08:57.535Z,28.93
2023-01-22T07:11:25.136Z,27.60
2023-01-22T07:13:53.086Z,23.47
2023-01-22T07:16:20.692Z,27.00
2023-01-22T07:18:48.610Z,26.73
2023-01-22T07:21:16.272Z,23.80
2023-01-22T07:23:44.369Z,26.47
2023-01-22T07:26:11.946Z,28.10
2023-01-22T07:28:39.875Z,26.50
2023-01-22T07:31:10.475Z,44.77
2023-01-22T07:33:38.597Z,36.77
2023-01-22T07:36:06.536Z,48.80
2023-01-22T07:38:34.477Z,35.50
2023-01-22T07:41:03.375Z,37.97
2023-01-22T07:43:32.742Z,127.03
2023-01-22T07:46:04.158Z,81.10
2023-01-22T07:48:32.349Z,96.20
2023-01-22T07:51:04.772Z,68.87
2023-01-22T07:53:33.061Z,80.13
2023-01-22T07:56:02.407Z,45.60
2023-01-22T07:58:30.759Z,61.13
2023-01-22T08:00:58.437Z,31.07
2023-01-22T08:03:26.253Z,34.03
2023-01-22T08:05:53.905Z,34.07
2023-01-22T08:08:21.829Z,30.10
2023-01-22T08:10:49.532Z,48.10
2023-01-22T08:13:17.439Z,26.97
2023-01-22T08:15:45.160Z,36.07
2023-01-22T08:18:13.108Z,28.77
2023-01-22T08:20:40.729Z,28.03
2023-01-22T08:23:08.605Z,31.77
2023-01-22T08:25:36.597Z,33.20
2023-01-22T08:28:05.372Z,33.33
2023-01-22T08:30:45.196Z,31.37
2023-01-22T08:33:16.028Z,30.83
2023-01-22T08:35:43.861Z,33.93
2023-01-22T08:38:11.955Z,31.03
2023-01-22T08:40:39.700Z,81.53
2023-01-22T08:43:07.794Z,57.23
2023-01-22T08:45:35.924Z,315.37
2023-01-22T08:48:03.871Z,404.53
2023-01-22T08:50:31.626Z,238.13
2023-01-22T08:52:59.562Z,397.80
2023-01-22T08:55:27.902Z,247.17
2023-01-22T08:57:56.463Z,201.80
2023-01-22T09:00:24.820Z,108.40
2023-01-22T09:02:53.011Z,72.73
2023-01-22T09:05:20.859Z,46.60
2023-01-22T09:07:48.942Z,47.10
2023-01-22T09:10:17.323Z,25.47
2023-01-22T09:12:46.022Z,51.27
2023-01-22T09:15:13.753Z,102.23
2023-01-22T09:17:42.661Z,30.63
2023-01-22T09:20:10.724Z,36.37
2023-01-22T09:22:38.904Z,27.07
2023-01-22T09:25:07.080Z,32.87
2023-01-22T09:27:35.151Z,26.33
2023-01-22T09:30:03.029Z,25.63
2023-01-22T09:32:31.441Z,28.80
2023-01-22T09:34:59.240Z,29.13
2023-01-22T09:37:27.263Z,37.27
2023-01-22T09:39:54.943Z,49.23
2023-01-22T09:42:38.244Z,42.67
2023-01-22T09:45:10.802Z,31.00
2023-01-22T09:47:44.754Z,50.43
2023-01-22T09:50:19.391Z,31.20
2023-01-22T09:52:47.608Z,32.60
2023-01-22T09:55:18.554Z,37.93
2023-01-22T09:57:48.666Z,31.27
2023-01-22T10:00:21.837Z,31.00
2023-01-22T10:02:59.447Z,53.13
2023-01-22T10:05:27.039Z,36.27
2023-01-22T10:08:00.741Z,31.33
2023-01-22T10:10:28.826Z,34.50
2023-01-22T10:13:02.531Z,39.97
2023-01-22T10:15:30.168Z,33.43
2023-01-22T10:17:58.828Z,32.03
2023-01-22T10:20:26.631Z,33.27
2023-01-22T10:22:56.233Z,39.60
2023-01-22T10:25:23.810Z,40.67
2023-01-22T10:27:57.824Z,51.00
2023-01-22T10:30:26.805Z,68.67
2023-01-22T10:33:01.949Z,52.80
2023-01-22T10:35:31.965Z,29.87
2023-01-22T10:38:01.177Z,36.33
2023-01-22T10:40:41.760Z,35.63
2023-01-22T10:43:20.226Z,39.60
2023-01-22T10:45:52.143Z,32.47
2023-01-22T10:48:20.206Z,37.47
2023-01-22T10:50:59.529Z,33.37
2023-01-22T10:53:38.982Z,26.77
2023-01-22T10:56:09.889Z,29.90
2023-01-22T10:58:40.957Z,35.00
2023-01-22T11:01:24.332Z,53.20
2023-01-22T11:03:52.336Z,32.13
2023-01-22T11:06:25.115Z,61.13
2023-01-22T11:09:11.509Z,30.87
2023-01-22T11:11:43.029Z,43.10
2023-01-22T11:14:27.628Z,42.73
2023-01-22T11:17:02.099Z,42.60
2023-01-22T11:19:37.449Z,52.60
2023-01-22T11:22:07.161Z,36.13
2023-01-22T11:24:42.898Z,36.67
2023-01-22T11:27:14.220Z,33.00
2023-01-22T11:29:59.153Z,39.53
2023-01-22T11:32:43.412Z,32.90
2023-01-22T11:35:46.696Z,33.67
2023-01-22T11:38:17.745Z,40.20
2023-01-22T11:40:51.490Z,35.97
2023-01-22T11:43:55.821Z,59.43
2023-01-22T11:46:24.249Z,57.93
2023-01-22T11:48:56.140Z,93.90
2023-01-22T11:51:27.108Z,105.33
2023-01-22T11:53:54.794Z,37.50
2023-01-22T11:56:41.226Z,43.93
2023-01-22T11:59:11.994Z,59.50
2023-01-22T12:01:55.303Z,55.63
2023-01-22T12:04:25.848Z,46.17
2023-01-22T12:06:57.109Z,58.37
2023-01-22T12:09:46.271Z,49.67
2023-01-22T12:12:14.495Z,31.93
2023-01-22T12:14:53.128Z,37.00
2023-01-22T12:17:39.711Z,42.50
2023-01-22T12:20:17.150Z,31.80
2023-01-22T12:22:53.902Z,40.13
2023-01-22T12:25:39.192Z,68.13
2023-01-22T12:28:10.522Z,290.17
2023-01-22T12:30:53.449Z,329.37
2023-01-22T12:33:25.773Z,118.60
2023-01-22T12:35:56.274Z,72.00
2023-01-22T12:38:27.119Z,45.20
2023-01-22T12:41:03.805Z,40.47
2023-01-22T12:43:38.983Z,65.90
2023-01-22T12:46:12.380Z,54.97
2023-01-22T12:48:49.516Z,43.03
2023-01-22T12:51:36.047Z,72.10
2023-01-22T12:54:11.166Z,59.90
2023-01-22T12:56:38.867Z,40.67
2023-01-22T12:59:06.946Z,41.33
2023-01-22T13:01:35.721Z,64.70
2023-01-22T13:04:07.998Z,49.50
2023-01-22T13:06:41.030Z,35.93
2023-01-22T13:09:26.110Z,56.00
2023-01-22T13:11:53.843Z,36.67
2023-01-22T13:14:28.479Z,46.73
2023-01-22T13:17:04.110Z,38.57
2023-01-22T13:19:42.769Z,60.93
2023-01-22T13:22:15.318Z,58.20
2023-01-22T13:24:50.264Z,56.30
2023-01-22T13:27:30.487Z,37.43
2023-01-22T13:30:16.773Z,39.10
2023-01-22T13:32:44.700Z,41.20
2023-01-22T13:35:15.161Z,38.00
2023-01-22T13:37:45.382Z,124.17
2023-01-22T13:40:13.746Z,38.33
2023-01-22T13:42:44.339Z,45.70
2023-01-22T13:45:19.223Z,57.43
2023-01-22T13:47:47.196Z,43.57
2023-01-22T13:50:26.330Z,97.90
2023-01-22T13:52:54.592Z,69.60
2023-01-22T13:55:26.885Z,40.20
2023-01-22T13:57:57.579Z,35.67
2023-01-22T14:00:25.848Z,38.33
2023-01-22T14:02:54.291Z,69.30
2023-01-22T14:05:27.145Z,61.90
2023-01-22T14:08:05.151Z,40.17
2023-01-22T14:10:33.378Z,58.10
2023-01-22T14:13:06.161Z,42.07
2023-01-22T14:15:35.496Z,50.10
2023-01-22T14:18:18.057Z,33.07
2023-01-22T14:20:48.016Z,59.93
2023-01-22T14:23:16.468Z,33.53
2023-01-22T14:25:51.345Z,51.20
2023-01-22T14:28:19.365Z,126.47
2023-01-22T14:30:47.714Z,67.93
2023-01-22T14:33:19.089Z,79.60
2023-01-22T14:35:47.495Z,33.83
2023-01-22T14:38:16.009Z,41.97
2023-01-22T14:40:44.232Z,41.87
2023-01-22T14:43:11.971Z,121.57
2023-01-22T14:45:40.940Z,31.77
2023-01-22T14:48:12.529Z,41.30
2023-01-22T14:50:41.723Z,32.53
2023-01-22T14:53:10.225Z,33.50
2023-01-22T14:55:39.752Z,38.23
2023-01-22T14:58:08.287Z,47.73
2023-01-22T15:00:36.718Z,48.47
2023-01-22T15:03:04.817Z,44.83
2023-01-22T15:05:35.484Z,65.20
2023-01-22T15:08:03.993Z,33.70
2023-01-22T15:10:33.509Z,35.27
2023-01-22T15:13:01.875Z,35.47
2023-01-22T15:15:30.602Z,36.97
2023-01-22T15:17:58.795Z,35.27
2023-01-22T15:20:27.002Z,32.63
2023-01-22T15:22:54.869Z,34.20
2023-01-22T15:25:23.207Z,31.63
2023-01-22T15:27:51.052Z,32.53
2023-01-22T15:30:19.797Z,33.07
2023-01-22T15:32:48.141Z,35.50
2023-01-22T15:35:16.498Z,32.83
2023-01-22T15:37:44.613Z,33.40
2023-01-22T15:40:12.946Z,40.47
2023-01-22T15:42:40.723Z,35.10
2023-01-22T15:45:09.052Z,33.77
2023-01-22T15:47:36.885Z,38.80
2023-01-22T15:50:05.751Z,38.40
2023-01-22T15:52:33.541Z,33.23
2023-01-22T15:55:01.374Z,32.97
2023-01-22T15:57:29.385Z,30.03
2023-01-22T15:59:57.547Z,32.13
2023-01-22T16:02:25.438Z,48.73
2023-01-22T16:04:53.767Z,32.80
2023-01-22T16:07:21.706Z,30.17
2023-01-22T16:09:49.875Z,29.97
2023-01-22T16:12:18.512Z,31.33
2023-01-22T16:14:46.678Z,36.67
2023-01-22T16:17:14.938Z,34.07
2023-01-22T16:19:43.525Z,53.00
2023-01-22T16:22:11.748Z,69.70
2023-01-22T16:24:40.816Z,190.87
2023-01-22T16:27:08.662Z,119.47
2023-01-22T16:29:36.672Z,261.23
2023-01-22T16:32:04.699Z,339.13
2023-01-22T16:34:32.984Z,58.50
2023-01-22T16:37:00.929Z,64.27
2023-01-22T16:39:29.148Z,35.07
2023-01-22T16:41:57.174Z,35.60
2023-01-22T16:44:27.354Z,56.03
2023-01-22T16:46:57.835Z,38.13
2023-01-22T16:49:27.210Z,73.97
2023-01-22T16:52:05.029Z,58.30
2023-01-22T16:54:39.372Z,88.60
2023-01-22T16:57:09.139Z,61.70
2023-01-22T16:59:39.783Z,39.33
2023-01-22T17:02:13.148Z,124.90
2023-01-22T17:04:41.372Z,77.90
2023-01-22T17:07:27.410Z,48.27
2023-01-22T17:10:00.623Z,49.03
2023-01-22T17:12:28.578Z,48.40
2023-01-22T17:14:56.739Z,59.70
2023-01-22T17:17:24.614Z,55.13
2023-01-22T17:19:52.628Z,55.57
2023-01-22T17:22:20.498Z,53.77
2023-01-22T17:24:48.682Z,50.23
2023-01-22T17:27:18.679Z,103.60
2023-01-22T17:29:46.827Z,127.63
2023-01-22T17:32:14.597Z,58.53
2023-01-22T17:34:42.835Z,39.83
2023-01-22T17:37:11.346Z,41.13
2023-01-22T17:39:41.054Z,38.50
2023-01-22T17:42:08.922Z,42.77
2023-01-22T17:44:36.988Z,106.67
2023-01-22T17:47:06.088Z,55.33
2023-01-22T17:49:35.301Z,41.10
2023-01-22T17:52:03.648Z,46.63
2023-01-22T17:54:32.070Z,37.43
2023-01-22T17:56:59.957Z,36.13
2023-01-22T17:59:28.432Z,36.53
2023-01-22T18:01:57.071Z,65.30
2023-01-22T18:04:26.084Z,160.70
2023-01-22T18:06:54.419Z,67.53
2023-01-22T18:09:25.063Z,196.67
2023-01-22T18:11:53.692Z,125.07
2023-01-22T18:14:28.362Z,37.03
2023-01-22T18:16:56.288Z,73.90
2023-01-22T18:19:24.820Z,42.97
2023-01-22T18:21:52.652Z,73.33
2023-01-22T18:24:23.091Z,66.47
2023-01-22T18:26:51.493Z,71.60
2023-01-22T18:29:19.833Z,151.47
2023-01-22T18:31:47.754Z,42.43
2023-01-22T18:34:16.246Z,64.67
2023-01-22T18:36:44.346Z,41.20
2023-01-22T18:39:16.702Z,80.73
2023-01-22T18:41:45.413Z,244.43
2023-01-22T18:44:15.332Z,84.83
2023-01-22T18:46:47.616Z,46.37
2023-01-22T18:49:17.682Z,44.37
2023-01-22T18:51:46.131Z,40.83
2023-01-22T18:54:14.442Z,69.63
2023-01-22T18:56:44.964Z,92.37
2023-01-22T18:59:13.332Z,75.97
2023-01-22T19:01:42.953Z,57.87
2023-01-22T19:04:18.092Z,92.97
2023-01-22T19:06:48.763Z,49.33
2023-01-22T19:09:17.171Z,96.43
2023-01-22T19:11:49.288Z,473.87
2023-01-22T19:14:18.516Z,113.20
2023-01-22T19:16:48.710Z,42.53
2023-01-22T19:19:17.304Z,35.33
2023-01-22T19:21:49.291Z,37.67
2023-01-22T19:24:19.764Z,90.33
2023-01-22T19:26:50.350Z,89.00
2023-01-22T19:29:19.973Z,44.93
2023-01-22T19:31:51.118Z,46.27
2023-01-22T19:34:23.963Z,35.50
2023-01-22T19:36:54.547Z,54.13
2023-01-22T19:39:23.547Z,61.57
2023-01-22T19:41:53.145Z,209.13
2023-01-22T19:44:23.066Z,83.77
2023-01-22T19:46:51.572Z,41.53
2023-01-22T19:49:20.683Z,41.97
2023-01-22T19:51:49.517Z,36.43
2023-01-22T19:54:18.967Z,39.17
2023-01-22T19:56:48.909Z,183.70
2023-01-22T19:59:19.009Z,120.50
2023-01-22T20:01:48.758Z,35.80
2023-01-22T20:04:20.892Z,33.67
2023-01-22T20:06:52.034Z,38.57
2023-01-22T20:09:22.084Z,30.83
2023-01-22T20:11:53.929Z,57.10
2023-01-22T20:14:23.453Z,73.03
2023-01-22T20:16:52.391Z,48.90
2023-01-22T20:19:21.725Z,37.43
2023-01-22T20:21:50.798Z,30.30
2023-01-22T20:24:20.894Z,28.50
2023-01-22T20:26:49.448Z,48.70
2023-01-22T20:29:20.949Z,31.80
2023-01-22T20:31:51.765Z,55.60
2023-01-22T20:34:21.627Z,71.17
2023-01-22T20:36:53.620Z,57.63
2023-01-22T20:39:26.089Z,54.83
2023-01-22T20:41:55.329Z,43.30
2023-01-22T20:44:27.015Z,25.87
2023-01-22T20:46:57.337Z,35.13
2023-01-22T20:49:26.459Z,24.40
2023-01-22T20:51:55.004Z,39.90
2023-01-22T20:54:24.599Z,32.23
2023-01-22T20:56:52.519Z,85.10
2023-01-22T20:59:22.335Z,50.93
2023-01-22T21:01:50.848Z,50.60
2023-01-22T21:04:20.096Z,44.17
2023-01-22T21:06:48.687Z,50.93
2023-01-22T21:09:17.257Z,30.23
2023-01-22T21:11:45.606Z,37.80
2023-01-22T21:14:20.582Z,31.63
2023-01-22T21:16:49.342Z,27.00
2023-01-22T21:19:21.836Z,41.70
2023-01-22T21:21:50.117Z,36.27
2023-01-22T21:24:19.881Z,27.37
2023-01-22T21:26:48.035Z,23.20
2023-01-22T21:29:18.210Z,25.67
2023-01-22T21:31:49.286Z,26.70
2023-01-22T21:34:19.035Z,23.90
2023-01-22T21:36:51.227Z,25.30
2023-01-22T21:39:20.851Z,37.70
2023-01-22T21:41:49.100Z,25.67
2023-01-22T21:44:57.363Z,27.93
2023-01-22T21:47:25.670Z,24.80
2023-01-22T21:49:54.011Z,34.27
2023-01-22T21:52:21.839Z,28.53
2023-01-22T21:54:50.039Z,26.83
2023-01-22T21:57:18.055Z,24.70
2023-01-22T21:59:49.280Z,25.13
2023-01-22T22:02:18.932Z,25.77
2023-01-22T22:04:47.518Z,22.13
2023-01-22T22:07:16.099Z,22.47
2023-01-22T22:09:45.059Z,24.47
2023-01-22T22:12:13.078Z,23.63
2023-01-22T22:14:41.351Z,21.77
2023-01-22T22:17:09.804Z,23.33
2023-01-22T22:19:38.468Z,24.90
2023-01-22T22:22:06.196Z,23.47
2023-01-22T22:24:34.267Z,24.67
2023-01-22T22:27:02.041Z,24.47
2023-01-22T22:29:30.154Z,25.07
2023-01-22T22:31:58.325Z,23.40
2023-01-22T22:34:26.783Z,23.93
2023-01-22T22:36:54.535Z,26.00
2023-01-22T22:39:22.580Z,22.27
2023-01-22T22:41:50.308Z,22.40
2023-01-22T22:44:18.388Z,25.43
2023-01-22T22:46:46.339Z,24.80
2023-01-22T22:49:14.960Z,24.20
2023-01-22T22:51:43.548Z,24.17
2023-01-22T22:54:15.001Z,22.77
2023-01-22T22:56:42.868Z,23.47
2023-01-22T22:59:10.979Z,23.73
2023-01-22T23:01:38.761Z,25.33
2023-01-22T23:04:07.597Z,24.13
2023-01-22T23:06:36.363Z,24.87
2023-01-22T23:09:14.982Z,25.20
2023-01-22T23:11:43.139Z,23.57
2023-01-22T23:14:11.688Z,23.07
2023-01-22T23:16:41.193Z,24.10
2023-01-22T23:19:13.481Z,23.23
2023-01-22T23:21:41.808Z,24.63
2023-01-22T23:24:10.770Z,24.03
2023-01-22T23:26:38.746Z,26.03
2023-01-22T23:29:08.481Z,23.63
2023-01-22T23:31:38.424Z,23.53
2023-01-22T23:34:07.936Z,25.10
2023-01-22T23:36:36.021Z,25.80
2023-01-22T23:39:04.850Z,25.43
2023-01-22T23:41:32.839Z,28.90
2023-01-22T23:44:00.855Z,27.53
2023-01-22T23:46:31.010Z,25.37
2023-01-22T23:48:59.882Z,24.50
2023-01-22T23:51:28.092Z,25.47
2023-01-22T23:53:56.230Z,25.47
2023-01-22T23:56:25.631Z,25.63
2023-01-22T23:58:54.723Z,22.90
